Time;durP1;ratioP1;P1;durP2;ratioP2;P2;SDS_P1;SDS_P2;PMS_P1;PMS_P2;Temp;Humidity;BMP_temperature;BMP_pressure;BME280_temperature;BME280_humidity;BME280_pressure;Samples;Min_cycle;Max_cycle;Signal;HPM_P1;HPM_P2
2023/06/08 00:02:19;;;;;;;8.73;6.60;;;;;;;;;;4972715;28;20038;-79
2023/06/08 00:04:45;;;;;;;10.07;6.50;;;;;;;;;;4989067;28;20073;-78
2023/06/08 00:07:14;;;;;;;10.82;7.55;;;;;;;;;;4982115;28;20031;-80
2023/06/08 00:09:50;;;;;;;8.60;7.07;;;;;;;;;;4965230;28;20038;-79
2023/06/08 00:12:16;;;;;;;14.02;7.00;;;;;;;;;;4977273;28;20093;-80
2023/06/08 00:14:42;;;;;;;11.82;7.65;;;;;;;;;;4956163;28;20026;-79
2023/06/08 00:17:10;;;;;;;8.05;6.53;;;;;;;;;;4974725;28;20473;-79
2023/06/08 00:19:38;;;;;;;10.23;7.28;;;;;;;;;;4974065;28;20069;-77
2023/06/08 00:22:08;;;;;;;12.20;7.38;;;;;;;;;;4957191;28;20561;-78
2023/06/08 00:24:34;;;;;;;9.43;6.82;;;;;;;;;;4941300;28;20515;-79
2023/06/08 00:27:00;;;;;;;11.13;7.10;;;;;;;;;;4956730;28;20034;-79
2023/06/08 00:29:26;;;;;;;11.60;7.53;;;;;;;;;;4941815;28;20031;-79
2023/06/08 00:31:52;;;;;;;10.95;7.47;;;;;;;;;;4921715;29;20512;-79
2023/06/08 00:34:17;;;;;;;9.60;6.88;;;;;;;;;;4939227;29;20082;-80
2023/06/08 00:36:43;;;;;;;9.27;7.20;;;;;;;;;;4939455;29;20035;-80
2023/06/08 00:39:11;;;;;;;;;;;;;;;;;;4923499;28;20106;-80
2023/06/08 00:41:37;;;;;;;14.07;7.80;;;;;;;;;;4938687;29;20356;-79
2023/06/08 00:44:06;;;;;;;9.55;6.78;;;;;;;;;;4939362;29;20066;-80
2023/06/08 00:46:32;;;;;;;10.68;6.78;;;;;;;;;;4963638;28;20492;-79
2023/06/08 00:48:58;;;;;;;10.32;8.10;;;;;;;;;;4975483;28;20099;-79
2023/06/08 00:51:26;;;;;;;12.65;8.23;;;;;;;;;;4976472;28;20030;-80
2023/06/08 00:53:53;;;;;;;13.25;8.30;;;;;;;;;;4958990;28;20081;-79
2023/06/08 00:56:18;;;;;;;18.48;8.60;;;;;;;;;;4959264;28;20030;-80
2023/06/08 00:58:48;;;;;;;11.90;8.73;;;;;;;;;;4943155;28;20066;-79
2023/06/08 01:01:17;;;;;;;10.65;8.57;;;;;;;;;;4971671;28;20054;-78
2023/06/08 01:03:46;;;;;;;14.50;10.05;;;;;;;;;;4967289;28;20539;-79
2023/06/08 01:06:13;;;;;;;;;;;;;;;;;;4931543;28;20518;-80
2023/06/08 01:08:47;;;;;;;12.82;9.20;;;;;;;;;;4957221;28;19933;-79
2023/06/08 01:11:36;;;;;;;13.48;9.38;;;;;;;;;;4940592;28;20038;-80
2023/06/08 01:14:21;;;;;;;11.65;9.45;;;;;;;;;;4974458;28;20498;-79
2023/06/08 01:16:51;;;;;;;13.18;9.52;;;;;;;;;;4973984;28;20078;-78
2023/06/08 01:19:28;;;;;;;14.30;10.40;;;;;;;;;;4955394;28;20030;-79
2023/06/08 01:22:32;;;;;;;15.13;9.60;;;;;;;;;;4956268;28;20239;-79
2023/06/08 01:24:59;;;;;;;11.80;9.32;;;;;;;;;;4917366;29;20587;-78
2023/06/08 01:27:26;;;;;;;14.07;9.50;;;;;;;;;;4917468;29;20536;-80
2023/06/08 01:29:52;;;;;;;12.95;8.95;;;;;;;;;;4917475;29;20047;-79
2023/06/08 01:32:19;;;;;;;14.15;10.20;;;;;;;;;;4932792;29;20035;-78
2023/06/08 01:34:45;;;;;;;13.25;9.65;;;;;;;;;;4915953;29;20036;-79
2023/06/08 01:37:29;;;;;;;13.27;9.32;;;;;;;;;;4932183;29;20068;-79
2023/06/08 01:39:59;;;;;;;12.70;9.27;;;;;;;;;;4916831;29;20043;-80
2023/06/08 01:42:26;;;;;;;14.13;9.63;;;;;;;;;;4932334;29;20130;-79
2023/06/08 01:44:56;;;;;;;10.85;9.40;;;;;;;;;;4932555;29;20548;-79
2023/06/08 01:47:24;;;;;;;13.48;9.57;;;;;;;;;;4916832;29;20031;-78
2023/06/08 01:49:52;;;;;;;12.10;10.00;;;;;;;;;;4932246;29;20040;-77
2023/06/08 01:52:18;;;;;;;13.18;9.93;;;;;;;;;;4928434;29;20036;-80
2023/06/08 01:54:43;;;;;;;11.73;10.27;;;;;;;;;;4932991;29;20482;-79
2023/06/08 01:57:09;;;;;;;14.20;10.55;;;;;;;;;;4920530;29;20476;-77
2023/06/08 01:59:35;;;;;;;15.18;10.63;;;;;;;;;;4936308;29;20090;-80
2023/06/08 02:02:00;;;;;;;16.83;10.85;;;;;;;;;;4920767;29;20039;-80
2023/06/08 02:04:26;;;;;;;11.57;9.55;;;;;;;;;;4936499;29;20059;-79
2023/06/08 02:06:51;;;;;;;12.27;9.50;;;;;;;;;;4936519;29;20042;-79
2023/06/08 02:09:17;;;;;;;11.15;9.95;;;;;;;;;;4941339;28;20034;-78
2023/06/08 02:11:42;;;;;;;14.93;9.75;;;;;;;;;;4955475;28;20038;-80
2023/06/08 02:14:08;;;;;;;13.68;10.10;;;;;;;;;;4972719;28;20050;-80
2023/06/08 02:16:34;;;;;;;12.40;10.10;;;;;;;;;;4955538;28;20046;-79
2023/06/08 02:19:01;;;;;;;13.60;10.32;;;;;;;;;;4939510;28;20074;-79
2023/06/08 02:21:27;;;;;;;14.73;10.77;;;;;;;;;;4939189;28;20054;-79
2023/06/08 02:23:52;;;;;;;15.82;10.82;;;;;;;;;;4955516;28;20420;-79
2023/06/08 02:26:18;;;;;;;11.45;10.15;;;;;;;;;;4955354;28;20480;-79
2023/06/08 02:28:43;;;;;;;13.02;9.95;;;;;;;;;;4938321;28;20495;-80
2023/06/08 02:31:09;;;;;;;18.25;11.55;;;;;;;;;;4972276;28;20057;-79
2023/06/08 02:33:35;;;;;;;12.48;10.52;;;;;;;;;;4972402;28;20404;-80
2023/06/08 02:36:00;;;;;;;13.60;10.60;;;;;;;;;;4972653;28;20027;-77
2023/06/08 02:38:26;;;;;;;13.00;10.38;;;;;;;;;;4973350;28;20070;-79
2023/06/08 02:40:52;;;;;;;13.27;10.63;;;;;;;;;;4941159;28;20514;-78
2023/06/08 02:43:19;;;;;;;15.90;10.70;;;;;;;;;;4956365;28;20184;-80
2023/06/08 02:45:47;;;;;;;;;;;;;;;;;;4947108;28;20047;-78
2023/06/08 02:48:13;;;;;;;15.88;10.82;;;;;;;;;;4932485;28;19921;-81
2023/06/08 02:50:39;;;;;;;15.98;10.40;;;;;;;;;;4932741;28;20035;-80
2023/06/08 02:53:05;;;;;;;14.80;10.35;;;;;;;;;;4970810;28;20031;-79
2023/06/08 02:55:34;;;;;;;13.45;11.10;;;;;;;;;;4956898;28;20039;-80
2023/06/08 02:58:03;;;;;;;14.25;11.23;;;;;;;;;;4928700;28;20041;-77
2023/06/08 03:00:30;;;;;;;12.45;9.93;;;;;;;;;;4958587;28;20484;-80
2023/06/08 03:03:23;;;;;;;15.65;10.57;;;;;;;;;;4956474;28;20453;-79
2023/06/08 03:05:50;;;;;;;16.40;11.10;;;;;;;;;;4942557;28;20031;-79
2023/06/08 03:08:16;;;;;;;14.57;10.52;;;;;;;;;;4942651;28;20035;-79
2023/06/08 03:10:43;;;;;;;13.68;9.75;;;;;;;;;;4942062;28;20038;-78
2023/06/08 03:13:09;;;;;;;14.07;10.43;;;;;;;;;;4944007;28;20031;-80
2023/06/08 03:15:36;;;;;;;14.90;10.30;;;;;;;;;;4965512;28;20043;-79
2023/06/08 03:18:02;;;;;;;16.25;10.90;;;;;;;;;;4948243;28;20062;-80
2023/06/08 03:20:29;;;;;;;13.60;11.00;;;;;;;;;;4975982;28;20038;-79
2023/06/08 03:23:04;;;;;;;17.10;10.55;;;;;;;;;;4969501;28;20038;-79
2023/06/08 03:25:30;;;;;;;15.68;11.70;;;;;;;;;;4944348;28;20038;-79
2023/06/08 03:27:56;;;;;;;20.05;12.20;;;;;;;;;;4958306;28;20027;-78
2023/06/08 03:30:22;;;;;;;13.05;10.90;;;;;;;;;;4957890;28;20046;-79
2023/06/08 03:32:52;;;;;;;13.93;10.15;;;;;;;;;;4942041;28;20042;-79
2023/06/08 03:35:25;;;;;;;13.38;10.05;;;;;;;;;;4958255;28;20054;-78
2023/06/08 03:38:09;;;;;;;16.67;10.63;;;;;;;;;;4958051;28;20058;-78
2023/06/08 03:40:35;;;;;;;13.55;10.25;;;;;;;;;;4942473;28;20061;-80
2023/06/08 03:43:01;;;;;;;13.27;10.85;;;;;;;;;;4958122;28;20039;-79
2023/06/08 03:45:27;;;;;;;17.10;10.32;;;;;;;;;;4957777;28;20092;-80
2023/06/08 03:47:55;;;;;;;16.90;10.43;;;;;;;;;;4956685;28;20035;-78
2023/06/08 03:50:21;;;;;;;12.40;9.77;;;;;;;;;;4958119;28;20038;-78
2023/06/08 03:52:47;;;;;;;12.43;10.07;;;;;;;;;;4942732;28;20026;-78
2023/06/08 03:55:13;;;;;;;12.75;10.20;;;;;;;;;;4975875;28;20045;-79
2023/06/08 03:57:40;;;;;;;13.43;9.60;;;;;;;;;;4958400;28;20480;-80
2023/06/08 04:00:11;;;;;;;11.20;9.73;;;;;;;;;;4942548;28;20359;-80
2023/06/08 04:02:40;;;;;;;13.68;9.63;;;;;;;;;;4958121;28;20055;-78
2023/06/08 04:05:08;;;;;;;12.70;9.67;;;;;;;;;;4941099;28;20034;-80
2023/06/08 04:07:35;;;;;;;16.90;10.15;;;;;;;;;;4958911;28;20284;-79
2023/06/08 04:10:01;;;;;;;16.38;9.63;;;;;;;;;;4941765;28;20480;-78
2023/06/08 04:12:26;;;;;;;13.95;9.80;;;;;;;;;;4957804;28;20023;-79
2023/06/08 04:14:52;;;;;;;14.90;9.32;;;;;;;;;;4957625;28;20035;-78
2023/06/08 04:17:18;;;;;;;12.77;9.15;;;;;;;;;;4941949;28;20031;-80
2023/06/08 04:19:45;;;;;;;14.73;10.18;;;;;;;;;;4955932;28;20158;-80
2023/06/08 04:22:10;;;;;;;13.45;9.50;;;;;;;;;;4974483;28;20448;-80
2023/06/08 04:24:38;;;;;;;11.43;9.13;;;;;;;;;;4957299;28;20109;-79
2023/06/08 04:27:06;;;;;;;14.10;10.15;;;;;;;;;;4941109;28;20072;-79
2023/06/08 04:29:32;;;;;;;16.75;9.20;;;;;;;;;;4925453;28;20042;-78
2023/06/08 04:31:58;;;;;;;10.43;8.82;;;;;;;;;;4974305;28;20026;-79
2023/06/08 04:34:24;;;;;;;11.50;9.75;;;;;;;;;;4941015;28;20483;-78
2023/06/08 04:36:50;;;;;;;15.70;9.02;;;;;;;;;;4956005;28;20062;-78
2023/06/08 04:39:16;;;;;;;13.15;10.13;;;;;;;;;;4941335;28;20023;-80
2023/06/08 04:41:44;;;;;;;15.57;10.05;;;;;;;;;;4941609;28;20023;-80
2023/06/08 04:44:13;;;;;;;12.98;8.77;;;;;;;;;;4941174;28;20031;-79
2023/06/08 04:46:41;;;;;;;11.32;7.95;;;;;;;;;;4974209;28;20484;-80
2023/06/08 04:49:08;;;;;;;13.18;8.70;;;;;;;;;;4941122;28;20027;-79
2023/06/08 04:51:39;;;;;;;13.95;8.77;;;;;;;;;;4957298;28;20054;-80
2023/06/08 04:54:05;;;;;;;17.80;8.85;;;;;;;;;;4940090;28;20082;-79
2023/06/08 04:56:33;;;;;;;18.00;8.40;;;;;;;;;;4941431;28;20484;-79
2023/06/08 04:58:59;;;;;;;13.07;8.68;;;;;;;;;;4957542;28;20129;-79
2023/06/08 05:01:25;;;;;;;12.52;7.90;;;;;;;;;;4925263;28;20055;-79
2023/06/08 05:03:50;;;;;;;12.15;8.07;;;;;;;;;;4942183;28;20030;-79
2023/06/08 05:06:16;;;;;;;14.05;8.70;;;;;;;;;;4977410;28;20407;-79
2023/06/08 05:08:41;;;;;;;12.63;7.82;;;;;;;;;;4979516;28;20038;-78
2023/06/08 05:11:08;;;;;;;13.43;8.18;;;;;;;;;;4944399;28;20487;-82
2023/06/08 05:13:34;;;;;;;13.55;8.80;;;;;;;;;;4945476;28;20045;-80
2023/06/08 05:15:59;;;;;;;13.77;8.20;;;;;;;;;;4979774;28;20062;-79
2023/06/08 05:18:25;;;;;;;10.13;7.47;;;;;;;;;;4961803;28;20031;-79
2023/06/08 05:20:51;;;;;;;17.08;8.80;;;;;;;;;;4979624;23;20073;-82
2023/06/08 05:23:16;;;;;;;11.57;7.50;;;;;;;;;;4943923;28;20488;-82
2023/06/08 05:25:42;;;;;;;12.10;6.88;;;;;;;;;;4942580;29;20500;-83
2023/06/08 05:28:08;;;;;;;14.18;8.30;;;;;;;;;;4940659;29;20042;-83
2023/06/08 05:30:33;;;;;;;11.20;8.05;;;;;;;;;;4925277;29;20446;-82
2023/06/08 05:33:02;;;;;;;10.73;8.10;;;;;;;;;;4931924;29;20031;-82
2023/06/08 05:35:27;;;;;;;;;;;;;;;;;;4917421;29;20063;-82
2023/06/08 05:37:53;;;;;;;13.45;8.55;;;;;;;;;;4946825;29;20364;-82
2023/06/08 05:40:19;;;;;;;11.60;7.38;;;;;;;;;;4928151;29;20492;-81
2023/06/08 05:42:44;;;;;;;11.55;7.95;;;;;;;;;;4957260;29;20397;-83
2023/06/08 05:45:11;;;;;;;9.70;7.18;;;;;;;;;;4957161;29;20389;-84
2023/06/08 05:47:37;;;;;;;10.15;7.30;;;;;;;;;;4957264;29;20035;-83
2023/06/08 05:50:03;;;;;;;9.50;6.93;;;;;;;;;;4956533;28;20109;-83
2023/06/08 05:52:30;;;;;;;11.68;7.03;;;;;;;;;;4958545;29;20035;-82
2023/06/08 05:54:55;;;;;;;11.20;6.78;;;;;;;;;;4933786;29;20121;-82
2023/06/08 05:57:21;;;;;;;15.80;8.63;;;;;;;;;;4922268;29;20027;-82
2023/06/08 05:59:46;;;;;;;11.32;7.43;;;;;;;;;;4943737;28;20103;-83
2023/06/08 06:02:13;;;;;;;10.93;7.00;;;;;;;;;;4935075;29;20387;-82
2023/06/08 06:04:38;;;;;;;11.95;8.20;;;;;;;;;;4934838;29;20115;-81
2023/06/08 06:07:05;;;;;;;13.13;7.78;;;;;;;;;;4934181;29;20086;-83
2023/06/08 06:09:30;;;;;;;13.20;7.40;;;;;;;;;;4917379;29;20040;-84
2023/06/08 06:11:56;;;;;;;15.15;8.20;;;;;;;;;;4935945;29;20063;-84
2023/06/08 06:14:21;;;;;;;11.40;7.70;;;;;;;;;;4919565;29;20119;-84
2023/06/08 06:16:47;;;;;;;11.70;7.30;;;;;;;;;;4919479;29;20032;-84
2023/06/08 06:19:15;;;;;;;11.75;7.93;;;;;;;;;;4888220;29;20405;-85
2023/06/08 06:21:41;;;;;;;;;;;;;;;;;;4919209;29;20047;-83
2023/06/08 06:24:06;;;;;;;11.00;7.43;;;;;;;;;;4935020;29;19934;-83
2023/06/08 06:26:32;;;;;;;10.30;6.93;;;;;;;;;;4921541;29;20043;-83
2023/06/08 06:28:57;;;;;;;15.05;8.82;;;;;;;;;;4923081;29;20425;-84
2023/06/08 06:31:23;;;;;;;11.88;7.72;;;;;;;;;;4923707;29;20040;-83
2023/06/08 06:33:49;;;;;;;11.23;8.05;;;;;;;;;;4933942;29;20024;-83
2023/06/08 06:36:15;;;;;;;14.63;7.63;;;;;;;;;;4950851;29;20056;-84
2023/06/08 06:38:40;;;;;;;13.15;9.50;;;;;;;;;;4917564;29;20032;-82
2023/06/08 06:41:06;;;;;;;15.48;9.32;;;;;;;;;;4915198;29;20035;-82
2023/06/08 06:43:32;;;;;;;13.10;8.38;;;;;;;;;;4916125;29;20206;-83
2023/06/08 06:46:06;;;;;;;13.05;7.90;;;;;;;;;;4924230;29;20032;-83
2023/06/08 06:48:31;;;;;;;14.00;8.02;;;;;;;;;;4938051;29;20103;-83
2023/06/08 06:50:57;;;;;;;15.05;7.90;;;;;;;;;;4931092;29;20102;-85
2023/06/08 06:53:23;;;;;;;12.05;8.18;;;;;;;;;;4938746;29;20038;-84
2023/06/08 06:56:08;;;;;;;11.05;7.68;;;;;;;;;;4937632;29;20609;-82
2023/06/08 06:58:34;;;;;;;190.85;129.23;;;;;;;;;;4938000;29;20064;-85
2023/06/08 07:01:01;;;;;;;15.98;9.38;;;;;;;;;;4906077;29;20071;-86
2023/06/08 07:03:27;;;;;;;11.10;7.05;;;;;;;;;;4905714;29;20376;-85
2023/06/08 07:05:53;;;;;;;14.77;7.20;;;;;;;;;;4938979;28;20032;-85
2023/06/08 07:08:19;;;;;;;12.95;7.72;;;;;;;;;;4919531;29;20043;-85
2023/06/08 07:10:44;;;;;;;12.15;6.65;;;;;;;;;;4919735;29;20464;-85
2023/06/08 07:13:10;;;;;;;13.35;7.60;;;;;;;;;;4904766;29;20131;-87
2023/06/08 07:15:36;;;;;;;9.60;6.82;;;;;;;;;;4904813;29;20059;-86
2023/06/08 07:18:01;;;;;;;13.68;6.78;;;;;;;;;;4919729;29;20099;-85
2023/06/08 07:20:27;;;;;;;14.13;7.75;;;;;;;;;;4920783;29;20044;-83
2023/06/08 07:22:53;;;;;;;19.92;7.25;;;;;;;;;;4942903;29;20058;-86
2023/06/08 07:25:18;;;;;;;9.52;6.78;;;;;;;;;;4940225;29;20488;-86
2023/06/08 07:27:44;;;;;;;15.52;7.43;;;;;;;;;;4940468;29;20101;-86
2023/06/08 07:30:10;;;;;;;8.93;6.07;;;;;;;;;;4958194;29;20051;-85
2023/06/08 07:32:36;;;;;;;10.95;6.80;;;;;;;;;;4924006;29;20043;-87
2023/06/08 07:35:04;;;;;;;9.52;6.53;;;;;;;;;;4909105;28;20024;-85
2023/06/08 07:37:30;;;;;;;13.38;6.57;;;;;;;;;;4925076;29;20039;-86
2023/06/08 07:39:55;;;;;;;11.13;6.20;;;;;;;;;;4940042;29;20397;-85
2023/06/08 07:42:21;;;;;;;9.65;5.90;;;;;;;;;;4947081;29;20035;-85
2023/06/08 07:44:47;;;;;;;11.73;6.97;;;;;;;;;;4956359;29;20090;-86
2023/06/08 07:47:12;;;;;;;13.05;6.68;;;;;;;;;;4939266;29;20032;-85
2023/06/08 07:49:38;;;;;;;12.18;6.00;;;;;;;;;;4923627;29;20062;-84
2023/06/08 07:52:04;;;;;;;12.77;7.00;;;;;;;;;;4939382;29;20031;-86
2023/06/08 07:54:29;;;;;;;8.32;6.22;;;;;;;;;;4956458;29;20028;-83
2023/06/08 07:56:55;;;;;;;11.40;6.20;;;;;;;;;;4955143;28;20089;-86
2023/06/08 07:59:20;;;;;;;11.93;6.78;;;;;;;;;;4939584;29;20554;-85
2023/06/08 08:01:46;;;;;;;10.07;6.80;;;;;;;;;;4907571;29;20098;-85
2023/06/08 08:04:12;;;;;;;9.52;5.80;;;;;;;;;;4955729;29;20023;-85
2023/06/08 08:06:37;;;;;;;11.25;6.10;;;;;;;;;;4924900;29;20581;-87
2023/06/08 08:09:03;;;;;;;9.13;5.53;;;;;;;;;;4940432;29;20058;-85
2023/06/08 08:11:29;;;;;;;8.38;5.40;;;;;;;;;;4964393;29;20027;-85
2023/06/08 08:13:55;;;;;;;12.65;5.57;;;;;;;;;;4950550;29;20054;-85
2023/06/08 08:16:22;;;;;;;11.38;5.85;;;;;;;;;;4918377;29;20115;-85
2023/06/08 08:18:48;;;;;;;11.00;6.07;;;;;;;;;;4933776;29;20036;-86
2023/06/08 08:21:14;;;;;;;8.50;5.32;;;;;;;;;;4932739;29;20516;-82
2023/06/08 08:23:39;;;;;;;10.55;5.50;;;;;;;;;;4930418;29;20039;-84
2023/06/08 08:26:05;;;;;;;8.88;6.20;;;;;;;;;;4936665;29;20023;-86
2023/06/08 08:28:30;;;;;;;12.05;6.20;;;;;;;;;;4939299;28;20038;-86
2023/06/08 08:30:56;;;;;;;11.10;6.10;;;;;;;;;;4939527;29;20093;-86
2023/06/08 08:33:21;;;;;;;9.68;5.63;;;;;;;;;;4940087;29;20039;-86
2023/06/08 08:35:47;;;;;;;8.70;5.03;;;;;;;;;;4937827;29;20046;-84
2023/06/08 08:38:13;;;;;;;8.93;4.82;;;;;;;;;;4948826;29;20042;-84
2023/06/08 08:40:40;;;;;;;15.43;6.00;;;;;;;;;;4930515;29;20059;-84
2023/06/08 08:43:12;;;;;;;10.32;5.80;;;;;;;;;;4947756;29;20039;-84
2023/06/08 08:45:39;;;;;;;8.27;5.40;;;;;;;;;;4929612;29;20031;-86
2023/06/08 08:48:07;;;;;;;9.98;5.35;;;;;;;;;;4938150;28;20040;-86
2023/06/08 08:50:36;;;;;;;9.27;5.32;;;;;;;;;;4921142;29;20548;-86
2023/06/08 08:53:02;;;;;;;11.25;5.78;;;;;;;;;;4920578;29;20040;-84
2023/06/08 08:55:28;;;;;;;7.95;4.97;;;;;;;;;;4937051;29;20115;-85
2023/06/08 08:57:58;;;;;;;7.88;4.88;;;;;;;;;;4920221;29;20063;-86
2023/06/08 09:00:24;;;;;;;14.93;6.15;;;;;;;;;;4938617;29;20059;-84
2023/06/08 09:02:53;;;;;;;8.60;5.07;;;;;;;;;;4919803;29;20094;-86
2023/06/08 09:05:18;;;;;;;9.55;5.40;;;;;;;;;;4950518;28;20063;-86
2023/06/08 09:07:44;;;;;;;12.70;6.05;;;;;;;;;;4955014;29;20050;-86
2023/06/08 09:10:13;;;;;;;11.27;6.13;;;;;;;;;;4955139;29;20492;-86
2023/06/08 09:12:39;;;;;;;8.73;5.43;;;;;;;;;;4937244;29;20039;-85
2023/06/08 09:15:05;;;;;;;9.18;4.80;;;;;;;;;;4954585;29;20035;-84
2023/06/08 09:17:37;;;;;;;10.30;5.43;;;;;;;;;;4938170;29;20031;-85
2023/06/08 09:20:29;;;;;;;12.18;5.55;;;;;;;;;;4944021;28;20050;-84
2023/06/08 09:22:55;;;;;;;11.00;5.40;;;;;;;;;;4927864;29;20031;-85
2023/06/08 09:25:36;;;;;;;13.70;6.10;;;;;;;;;;4933896;29;20091;-84
2023/06/08 09:28:15;;;;;;;14.23;6.75;;;;;;;;;;4952106;29;20091;-84
2023/06/08 09:30:41;;;;;;;7.60;5.78;;;;;;;;;;4932790;29;20446;-85
2023/06/08 09:33:26;;;;;;;9.35;6.35;;;;;;;;;;4948590;29;20039;-83
2023/06/08 09:35:58;;;;;;;8.75;6.07;;;;;;;;;;4933414;29;20054;-83
2023/06/08 09:38:27;;;;;;;13.75;6.85;;;;;;;;;;4948529;29;20103;-84
2023/06/08 09:41:12;;;;;;;10.80;7.25;;;;;;;;;;4937741;29;20038;-86
2023/06/08 09:43:37;;;;;;;13.38;7.15;;;;;;;;;;4937256;29;20063;-84
2023/06/08 09:46:03;;;;;;;11.05;6.88;;;;;;;;;;4938822;29;20055;-84
2023/06/08 09:48:28;;;;;;;14.20;6.43;;;;;;;;;;4940232;29;20050;-84
2023/06/08 09:50:57;;;;;;;14.85;6.85;;;;;;;;;;4907614;29;20028;-84
2023/06/08 09:53:24;;;;;;;12.60;7.47;;;;;;;;;;4938703;28;20503;-84
2023/06/08 09:55:51;;;;;;;11.20;7.40;;;;;;;;;;4948946;28;20039;-85
2023/06/08 09:58:16;;;;;;;11.25;6.38;;;;;;;;;;4933769;29;20066;-83
2023/06/08 10:00:48;;;;;;;11.77;7.13;;;;;;;;;;4937654;28;20051;-84
2023/06/08 10:03:24;;;;;;;10.90;6.57;;;;;;;;;;4930468;29;20032;-85
2023/06/08 10:05:50;;;;;;;12.02;6.75;;;;;;;;;;4956711;28;20507;-83
2023/06/08 10:08:18;;;;;;;9.95;6.07;;;;;;;;;;4964384;28;20030;-84
2023/06/08 10:10:44;;;;;;;14.77;5.88;;;;;;;;;;4973207;28;20089;-84
2023/06/08 10:13:10;;;;;;;12.23;6.70;;;;;;;;;;4960817;28;20484;-84
2023/06/08 10:15:36;;;;;;;12.02;6.25;;;;;;;;;;4931190;28;20118;-84
2023/06/08 10:18:08;;;;;;;10.88;6.75;;;;;;;;;;4957312;29;20038;-84
2023/06/08 10:20:35;;;;;;;13.52;6.22;;;;;;;;;;4925429;29;20047;-85
2023/06/08 10:23:01;;;;;;;10.77;6.50;;;;;;;;;;4953280;28;20062;-84
2023/06/08 10:25:30;;;;;;;12.48;6.93;;;;;;;;;;4944359;29;20412;-85
2023/06/08 10:28:03;;;;;;;16.92;7.45;;;;;;;;;;4945733;28;20030;-84
2023/06/08 10:30:30;;;;;;;11.45;6.70;;;;;;;;;;4936219;29;20046;-84
2023/06/08 10:33:24;;;;;;;18.65;7.47;;;;;;;;;;4947212;28;20488;-84
2023/06/08 10:36:03;;;;;;;20.02;11.93;;;;;;;;;;4924264;28;20165;-83
2023/06/08 10:38:29;;;;;;;31.38;20.67;;;;;;;;;;4964619;28;20041;-85
2023/06/08 10:40:55;;;;;;;19.45;13.40;;;;;;;;;;4953796;28;20039;-86
2023/06/08 10:43:30;;;;;;;16.00;9.20;;;;;;;;;;4957870;28;20044;-84
2023/06/08 10:45:57;;;;;;;15.38;8.85;;;;;;;;;;4958261;28;20129;-84
2023/06/08 10:48:34;;;;;;;12.98;7.95;;;;;;;;;;4950172;29;20049;-85
2023/06/08 10:51:03;;;;;;;15.35;7.88;;;;;;;;;;4951150;29;20476;-86
2023/06/08 10:53:55;;;;;;;11.45;7.97;;;;;;;;;;4970671;28;20034;-84
2023/06/08 10:56:41;;;;;;;14.52;8.52;;;;;;;;;;4963019;28;20031;-84
2023/06/08 10:59:07;;;;;;;15.20;7.03;;;;;;;;;;4958993;28;20581;-84
2023/06/08 11:01:35;;;;;;;16.83;7.28;;;;;;;;;;4994151;28;20038;-83
2023/06/08 11:04:06;;;;;;;11.40;7.30;;;;;;;;;;4941665;29;20088;-82
2023/06/08 11:06:35;;;;;;;16.33;8.45;;;;;;;;;;4924747;29;20023;-85
2023/06/08 11:09:03;;;;;;;12.73;7.22;;;;;;;;;;4966972;28;20039;-83
2023/06/08 11:11:30;;;;;;;15.23;7.80;;;;;;;;;;4943300;28;20065;-84
2023/06/08 11:13:55;;;;;;;10.32;7.10;;;;;;;;;;4928453;28;20019;-84
2023/06/08 11:16:21;;;;;;;11.50;6.63;;;;;;;;;;4951866;29;20484;-83
2023/06/08 11:18:47;;;;;;;11.95;7.80;;;;;;;;;;4942524;29;20449;-83
2023/06/08 11:21:12;;;;;;;11.15;6.95;;;;;;;;;;4959277;28;20035;-84
2023/06/08 11:23:38;;;;;;;12.93;6.47;;;;;;;;;;4961348;28;20035;-83
2023/06/08 11:26:03;;;;;;;8.18;5.20;;;;;;;;;;4961260;28;20400;-84
2023/06/08 11:28:29;;;;;;;9.65;5.72;;;;;;;;;;4947999;28;20057;-84
2023/06/08 11:30:55;;;;;;;8.88;5.47;;;;;;;;;;4952639;28;20072;-84
2023/06/08 11:33:21;;;;;;;6.68;5.25;;;;;;;;;;4948705;28;20035;-86
2023/06/08 11:35:51;;;;;;;11.18;5.55;;;;;;;;;;4947831;28;20047;-82
2023/06/08 11:38:16;;;;;;;12.25;5.15;;;;;;;;;;4951599;23;20126;-82
2023/06/08 11:40:42;;;;;;;12.25;5.32;;;;;;;;;;4974595;28;20031;-81
2023/06/08 11:43:12;;;;;;;7.78;4.85;;;;;;;;;;4964809;28;20090;-83
2023/06/08 11:45:39;;;;;;;10.45;4.63;;;;;;;;;;4985841;28;20019;-81
2023/06/08 11:48:07;;;;;;;10.27;4.68;;;;;;;;;;4980559;28;20035;-82
2023/06/08 11:50:33;;;;;;;8.05;5.00;;;;;;;;;;4984597;28;20039;-81
2023/06/08 11:53:00;;;;;;;9.52;5.88;;;;;;;;;;4984532;28;20556;-81
2023/06/08 11:55:26;;;;;;;8.77;4.88;;;;;;;;;;4962597;28;20070;-81
2023/06/08 11:57:56;;;;;;;7.55;4.13;;;;;;;;;;4965602;28;20247;-81
2023/06/08 12:00:25;;;;;;;7.70;4.35;;;;;;;;;;4966141;28;20093;-82
2023/06/08 12:02:50;;;;;;;7.50;4.35;;;;;;;;;;4960607;29;20464;-81
2023/06/08 12:05:17;;;;;;;11.20;4.82;;;;;;;;;;4945221;29;20031;-81
2023/06/08 12:07:53;;;;;;;7.75;5.00;;;;;;;;;;4941379;29;20035;-82
2023/06/08 12:10:19;;;;;;;13.32;5.22;;;;;;;;;;4941267;29;20461;-81
2023/06/08 12:12:46;;;;;;;12.77;4.45;;;;;;;;;;4959056;28;20149;-83
2023/06/08 12:15:16;;;;;;;10.75;4.90;;;;;;;;;;4942331;29;20027;-81
2023/06/08 12:17:42;;;;;;;9.45;5.10;;;;;;;;;;4939361;29;20066;-81
2023/06/08 12:20:08;;;;;;;8.63;4.38;;;;;;;;;;4936586;29;20062;-80
2023/06/08 12:22:34;;;;;;;8.23;5.25;;;;;;;;;;4944855;28;20094;-80
2023/06/08 12:25:00;;;;;;;8.95;5.00;;;;;;;;;;4936498;28;20027;-81
2023/06/08 12:27:29;;;;;;;11.73;5.22;;;;;;;;;;4949153;28;20546;-79
2023/06/08 12:29:56;;;;;;;7.68;4.75;;;;;;;;;;4959762;28;20043;-79
2023/06/08 12:32:23;;;;;;;12.23;5.53;;;;;;;;;;4923121;28;20038;-81
2023/06/08 12:34:48;;;;;;;11.27;5.50;;;;;;;;;;4954419;29;20086;-80
2023/06/08 12:37:14;;;;;;;7.45;4.10;;;;;;;;;;4954454;28;20090;-79
2023/06/08 12:39:39;;;;;;;10.75;5.15;;;;;;;;;;4974070;28;20031;-79
2023/06/08 12:42:06;;;;;;;9.27;4.53;;;;;;;;;;4960244;28;20042;-79
2023/06/08 12:44:32;;;;;;;9.80;5.25;;;;;;;;;;4958765;28;20031;-79
2023/06/08 12:46:58;;;;;;;13.48;5.18;;;;;;;;;;4954902;28;20456;-79
2023/06/08 12:49:24;;;;;;;8.30;5.13;;;;;;;;;;4937028;29;20126;-79
2023/06/08 12:51:50;;;;;;;11.20;5.47;;;;;;;;;;4936918;29;20110;-78
2023/06/08 12:54:15;;;;;;;8.80;5.28;;;;;;;;;;4953932;29;20054;-78
2023/06/08 12:56:41;;;;;;;11.40;7.32;;;;;;;;;;4936844;29;20051;-79
2023/06/08 12:59:07;;;;;;;139.60;102.93;;;;;;;;;;4953097;28;20415;-78
2023/06/08 13:01:33;;;;;;;185.75;134.40;;;;;;;;;;4952961;28;20039;-80
2023/06/08 13:03:59;;;;;;;160.63;120.93;;;;;;;;;;4924794;28;20065;-79
2023/06/08 13:06:26;;;;;;;69.18;53.20;;;;;;;;;;4974120;28;20066;-79
2023/06/08 13:08:52;;;;;;;65.22;48.92;;;;;;;;;;4937227;29;20535;-78
2023/06/08 13:11:17;;;;;;;41.70;31.48;;;;;;;;;;4931875;28;20038;-80
2023/06/08 13:13:43;;;;;;;31.27;21.88;;;;;;;;;;4973727;28;20106;-79
2023/06/08 13:16:08;;;;;;;22.05;14.55;;;;;;;;;;4955888;28;20043;-80
2023/06/08 13:18:34;;;;;;;29.50;18.40;;;;;;;;;;4959932;28;20372;-79
2023/06/08 13:20:59;;;;;;;25.45;16.48;;;;;;;;;;4962568;28;20061;-79
2023/06/08 13:23:25;;;;;;;8.82;5.38;;;;;;;;;;4945397;29;20046;-79
2023/06/08 13:25:51;;;;;;;12.35;6.50;;;;;;;;;;4970595;28;20050;-79
2023/06/08 13:28:17;;;;;;;11.80;7.10;;;;;;;;;;4961966;28;20511;-79
2023/06/08 13:30:42;;;;;;;16.55;5.18;;;;;;;;;;4971201;28;20028;-79
2023/06/08 13:33:08;;;;;;;10.60;5.40;;;;;;;;;;4967343;28;20054;-79
2023/06/08 13:35:33;;;;;;;8.77;4.78;;;;;;;;;;4964259;28;20453;-79
2023/06/08 13:37:59;;;;;;;9.30;4.50;;;;;;;;;;4975064;28;20027;-79
2023/06/08 13:40:31;;;;;;;7.90;5.15;;;;;;;;;;4927676;28;20523;-80
2023/06/08 13:42:57;;;;;;;9.35;5.55;;;;;;;;;;4949958;29;20488;-79
2023/06/08 13:45:22;;;;;;;9.32;4.88;;;;;;;;;;4968835;28;20049;-80
2023/06/08 13:47:48;;;;;;;14.57;4.85;;;;;;;;;;4930439;29;20075;-80
2023/06/08 13:50:17;;;;;;;8.85;5.18;;;;;;;;;;4927744;28;20400;-79
2023/06/08 13:52:43;;;;;;;8.57;5.50;;;;;;;;;;4946204;28;20041;-81
2023/06/08 13:55:12;;;;;;;10.65;5.50;;;;;;;;;;4930410;29;20027;-79
2023/06/08 13:57:37;;;;;;;8.20;5.43;;;;;;;;;;4951760;28;20031;-79
2023/06/08 14:00:04;;;;;;;1398.55;692.97;;;;;;;;;;4956221;28;20035;-83
2023/06/08 14:02:38;;;;;;;19.77;14.85;;;;;;;;;;4939132;29;20098;-77
2023/06/08 14:05:04;;;;;;;14.27;8.52;;;;;;;;;;4937553;29;20074;-80
2023/06/08 14:07:29;;;;;;;15.20;8.40;;;;;;;;;;4953950;29;20063;-79
2023/06/08 14:09:55;;;;;;;13.63;7.90;;;;;;;;;;4905245;29;20362;-78
2023/06/08 14:12:21;;;;;;;17.25;7.95;;;;;;;;;;4936916;29;20039;-84
2023/06/08 14:14:49;;;;;;;13.65;8.20;;;;;;;;;;4940203;29;20353;-81
2023/06/08 14:17:15;;;;;;;;;;;;;;;;;;4938648;29;20035;-78
2023/06/08 14:19:40;;;;;;;11.20;7.22;;;;;;;;;;4920154;29;20356;-78
2023/06/08 14:22:06;;;;;;;12.10;6.72;;;;;;;;;;4953015;29;20378;-78
2023/06/08 14:24:32;;;;;;;10.40;6.43;;;;;;;;;;4919920;29;20444;-78
2023/06/08 14:26:58;;;;;;;9.60;5.88;;;;;;;;;;4952605;29;20027;-76
2023/06/08 14:29:23;;;;;;;10.38;5.47;;;;;;;;;;4936005;29;20114;-77
2023/06/08 14:31:49;;;;;;;9.52;5.20;;;;;;;;;;4931325;29;20155;-78
2023/06/08 14:34:14;;;;;;;10.43;5.35;;;;;;;;;;4915996;29;20481;-78